createdAt,value
2018-01-23T00:01:44.183Z,7.50
2018-01-23T00:04:11.811Z,7.50
2018-01-23T00:06:39.376Z,7.50
2018-01-23T00:09:07.713Z,7.50
2018-01-23T00:11:35.341Z,7.50
2018-01-23T00:14:02.865Z,7.50
2018-01-23T00:16:30.466Z,7.40
2018-01-23T00:18:58.812Z,7.50
2018-01-23T00:21:26.392Z,7.50
2018-01-23T00:23:53.980Z,7.40
2018-01-23T00:26:21.693Z,7.40
2018-01-23T00:28:49.356Z,7.40
2018-01-23T00:31:16.975Z,7.40
2018-01-23T00:33:45.324Z,7.30
2018-01-23T00:36:13.367Z,7.30
2018-01-23T00:38:40.986Z,7.40
2018-01-23T00:41:09.310Z,7.30
2018-01-23T00:43:36.872Z,7.30
2018-01-23T00:46:04.472Z,7.30
2018-01-23T00:48:32.015Z,7.30
2018-01-23T00:50:59.693Z,7.20
2018-01-23T00:53:28.067Z,7.20
2018-01-23T00:55:55.626Z,7.20
2018-01-23T00:58:23.935Z,7.30
2018-01-23T01:00:51.465Z,7.20
2018-01-23T01:03:19.035Z,7.20
2018-01-23T01:05:46.565Z,7.30
2018-01-23T01:08:14.182Z,7.30
2018-01-23T01:10:41.727Z,7.40
2018-01-23T01:13:10.100Z,7.40
2018-01-23T01:15:38.496Z,7.40
2018-01-23T01:18:06.038Z,7.40
2018-01-23T01:20:34.375Z,7.50
2018-01-23T01:23:01.970Z,7.40
2018-01-23T01:25:30.261Z,7.40
2018-01-23T01:27:57.833Z,7.40
2018-01-23T01:30:25.419Z,7.40
2018-01-23T01:32:53.038Z,7.40
2018-01-23T01:35:21.340Z,7.30
2018-01-23T01:37:48.977Z,7.30
2018-01-23T01:40:16.546Z,7.30
2018-01-23T01:42:44.152Z,7.40
2018-01-23T01:45:11.708Z,7.40
2018-01-23T01:47:39.331Z,7.40
2018-01-23T01:50:06.849Z,7.40
2018-01-23T01:52:34.399Z,7.30
2018-01-23T01:55:01.990Z,7.30
2018-01-23T01:57:29.664Z,7.30
2018-01-23T01:59:58.118Z,7.30
2018-01-23T02:02:25.692Z,7.30
2018-01-23T02:04:54.033Z,7.30
2018-01-23T02:07:21.589Z,7.30
2018-01-23T02:09:49.187Z,7.20
2018-01-23T02:12:16.739Z,7.20
2018-01-23T02:14:45.778Z,7.20
2018-01-23T02:17:13.613Z,7.20
2018-01-23T02:19:41.999Z,7.10
2018-01-23T02:22:09.544Z,7.10
2018-01-23T02:24:37.104Z,7.20
2018-01-23T02:27:04.698Z,7.20
2018-01-23T02:29:32.261Z,7.20
2018-01-23T02:31:59.827Z,7.10
2018-01-23T02:34:27.388Z,7.10
2018-01-23T02:36:54.942Z,7.20
2018-01-23T02:39:22.507Z,7.20
2018-01-23T02:41:50.080Z,7.20
2018-01-23T02:44:17.745Z,7.10
2018-01-23T02:46:45.417Z,7.10
2018-01-23T02:49:12.989Z,7.20
2018-01-23T02:51:40.628Z,7.20
2018-01-23T02:54:08.972Z,7.10
2018-01-23T02:56:36.571Z,7.10
2018-01-23T02:59:05.083Z,7.10
2018-01-23T03:01:32.638Z,7.10
2018-01-23T03:04:00.239Z,7.20
2018-01-23T03:06:27.804Z,7.20
2018-01-23T03:08:55.383Z,7.10
2018-01-23T03:11:23.726Z,7.20
2018-01-23T03:13:51.310Z,7.20
2018-01-23T03:16:18.866Z,7.20
2018-01-23T03:18:46.429Z,7.20
2018-01-23T03:21:14.086Z,7.10
2018-01-23T03:23:42.428Z,7.10
2018-01-23T03:26:09.971Z,7.20
2018-01-23T03:28:37.850Z,7.20
2018-01-23T03:31:05.450Z,7.20
2018-01-23T03:33:33.551Z,7.20
2018-01-23T03:36:01.898Z,7.20
2018-01-23T03:38:29.523Z,7.20
2018-01-23T03:40:57.112Z,7.20
2018-01-23T03:43:24.673Z,7.20
2018-01-23T03:45:52.236Z,7.10
2018-01-23T03:48:19.802Z,7.10
2018-01-23T03:50:47.365Z,7.20
2018-01-23T03:53:15.069Z,7.20
2018-01-23T03:55:42.626Z,7.10
2018-01-23T03:58:10.201Z,7.00
2018-01-23T04:00:37.820Z,7.00
2018-01-23T04:03:06.117Z,7.10
2018-01-23T04:05:33.701Z,7.00
2018-01-23T04:08:01.532Z,7.00
2018-01-23T04:10:29.846Z,7.00
2018-01-23T04:12:57.922Z,7.00
2018-01-23T04:15:25.538Z,7.10
2018-01-23T04:17:53.867Z,7.10
2018-01-23T04:20:21.473Z,7.00
2018-01-23T04:22:49.779Z,7.00
2018-01-23T04:25:17.349Z,6.90
2018-01-23T04:27:44.932Z,7.00
2018-01-23T04:30:12.485Z,7.00
2018-01-23T04:32:40.031Z,7.00
2018-01-23T04:35:07.620Z,7.00
2018-01-23T04:37:35.434Z,7.00
2018-01-23T04:40:03.804Z,7.10
2018-01-23T04:42:32.168Z,7.10
2018-01-23T04:45:00.596Z,7.00
2018-01-23T04:47:28.122Z,7.00
2018-01-23T04:49:56.471Z,7.10
2018-01-23T04:52:24.011Z,7.10
2018-01-23T04:54:51.627Z,7.00
2018-01-23T04:57:19.201Z,7.00
2018-01-23T04:59:46.771Z,7.10
2018-01-23T05:02:14.356Z,7.10
2018-01-23T05:04:41.927Z,7.00
2018-01-23T05:07:09.454Z,6.90
2018-01-23T05:09:37.001Z,7.00
2018-01-23T05:12:04.548Z,7.00
2018-01-23T05:14:32.160Z,7.10
2018-01-23T05:16:59.702Z,7.00
2018-01-23T05:19:27.259Z,7.10
2018-01-23T05:21:54.856Z,7.10
2018-01-23T05:24:23.230Z,7.00
2018-01-23T05:26:50.777Z,7.00
2018-01-23T05:29:18.351Z,7.10
2018-01-23T05:31:46.008Z,7.00
2018-01-23T05:34:13.636Z,6.90
2018-01-23T05:36:41.244Z,6.80
2018-01-23T05:39:08.852Z,6.70
2018-01-23T05:41:37.038Z,6.70
2018-01-23T05:44:04.587Z,6.60
2018-01-23T05:46:32.182Z,6.60
2018-01-23T05:48:59.731Z,6.50
2018-01-23T05:51:27.281Z,6.50
2018-01-23T05:53:55.465Z,6.50
2018-01-23T05:56:23.025Z,6.50
2018-01-23T05:58:50.569Z,6.60
2018-01-23T06:01:18.126Z,6.60
2018-01-23T06:03:45.670Z,6.70
2018-01-23T06:06:13.872Z,6.80
2018-01-23T06:08:41.460Z,6.80
2018-01-23T06:11:09.036Z,6.80
2018-01-23T06:13:36.651Z,6.80
2018-01-23T06:16:04.206Z,6.60
2018-01-23T06:18:31.911Z,6.60
2018-01-23T06:20:59.440Z,6.60
2018-01-23T06:23:27.021Z,6.40
2018-01-23T06:25:55.374Z,6.50
2018-01-23T06:28:22.965Z,6.50
2018-01-23T06:30:50.539Z,6.50
2018-01-23T06:33:18.967Z,6.50
2018-01-23T06:35:46.644Z,6.50
2018-01-23T06:38:14.318Z,6.60
2018-01-23T06:40:41.963Z,6.60
2018-01-23T06:43:09.567Z,6.70
2018-01-23T06:45:38.090Z,6.80
2018-01-23T06:48:06.430Z,6.70
2018-01-23T06:50:34.043Z,6.70
2018-01-23T06:53:01.649Z,6.70
2018-01-23T06:55:29.280Z,6.70
2018-01-23T06:57:56.858Z,6.80
2018-01-23T07:00:24.528Z,6.70
2018-01-23T07:02:52.356Z,6.70
2018-01-23T07:05:20.845Z,6.80
2018-01-23T07:07:48.507Z,6.80
2018-01-23T07:10:16.859Z,6.90
2018-01-23T07:12:44.529Z,6.90
2018-01-23T07:15:12.104Z,6.90
2018-01-23T07:17:40.467Z,7.00
2018-01-23T07:20:08.070Z,6.90
2018-01-23T07:22:35.645Z,7.00
2018-01-23T07:25:03.185Z,7.00
2018-01-23T07:27:31.548Z,7.00
2018-01-23T07:29:59.849Z,7.00
2018-01-23T07:32:27.433Z,6.90
2018-01-23T07:34:55.093Z,6.90
2018-01-23T07:37:22.693Z,6.90
2018-01-23T07:39:50.293Z,6.80
2018-01-23T07:42:17.871Z,6.90
2018-01-23T07:44:45.482Z,7.00
2018-01-23T07:47:13.855Z,7.00
2018-01-23T07:49:42.269Z,7.10
2018-01-23T07:52:09.825Z,7.10
2018-01-23T07:54:37.482Z,7.10
2018-01-23T07:57:05.045Z,7.10
2018-01-23T07:59:32.910Z,7.10
2018-01-23T08:02:00.514Z,7.20
2018-01-23T08:04:28.126Z,7.20
2018-01-23T08:06:56.546Z,7.20
2018-01-23T08:09:24.182Z,7.20
2018-01-23T08:11:52.636Z,7.30
2018-01-23T08:14:20.243Z,7.30
2018-01-23T08:16:48.618Z,7.30
2018-01-23T08:19:17.002Z,7.30
2018-01-23T08:21:44.632Z,7.30
2018-01-23T08:24:12.208Z,7.30
2018-01-23T08:26:39.752Z,7.30
2018-01-23T08:29:08.100Z,7.20
2018-01-23T08:31:35.661Z,7.20
2018-01-23T08:34:03.250Z,7.30
2018-01-23T08:36:31.643Z,7.40
2018-01-23T08:38:59.363Z,7.40
2018-01-23T08:41:26.916Z,7.50
2018-01-23T08:43:55.250Z,7.60
2018-01-23T08:46:22.769Z,7.50
2018-01-23T08:48:50.349Z,7.40
2018-01-23T08:51:17.907Z,7.40
2018-01-23T08:53:45.484Z,7.40
2018-01-23T08:56:13.026Z,7.40
2018-01-23T08:58:41.380Z,7.30
2018-01-23T09:01:08.972Z,7.30
2018-01-23T09:03:36.554Z,7.30
2018-01-23T09:06:04.113Z,7.40
2018-01-23T09:08:31.645Z,7.40
2018-01-23T09:11:00.177Z,7.40
2018-01-23T09:13:27.846Z,7.30
2018-01-23T09:15:55.400Z,7.40
2018-01-23T09:18:22.963Z,7.40
2018-01-23T09:20:50.496Z,7.60
2018-01-23T09:23:18.218Z,7.60
2018-01-23T09:25:45.789Z,7.60
2018-01-23T09:28:14.173Z,7.50
2018-01-23T09:30:42.827Z,7.50
2018-01-23T09:33:10.385Z,7.50
2018-01-23T09:35:37.938Z,7.60
2018-01-23T09:38:05.533Z,7.50
2018-01-23T09:40:33.838Z,7.40
2018-01-23T09:43:01.402Z,7.40
2018-01-23T09:45:29.061Z,7.50
2018-01-23T09:47:56.734Z,7.50
2018-01-23T09:50:24.325Z,7.60
2018-01-23T09:52:52.139Z,7.50
2018-01-23T09:55:19.835Z,7.50
2018-01-23T09:57:47.689Z,7.50
2018-01-23T10:00:15.656Z,7.60
2018-01-23T10:02:43.350Z,7.60
2018-01-23T10:05:10.933Z,7.70
2018-01-23T10:07:39.340Z,7.70
2018-01-23T10:10:06.916Z,7.80
2018-01-23T10:12:34.486Z,7.80
2018-01-23T10:15:02.161Z,7.90
2018-01-23T10:17:29.753Z,7.80
2018-01-23T10:19:57.425Z,7.80
2018-01-23T10:22:25.010Z,7.80
2018-01-23T10:24:52.689Z,7.90
2018-01-23T10:27:20.227Z,7.90
2018-01-23T10:29:47.844Z,7.80
2018-01-23T10:32:15.397Z,7.90
2018-01-23T10:34:43.034Z,8.00
2018-01-23T10:37:10.674Z,8.00
2018-01-23T10:39:38.259Z,7.80
2018-01-23T10:42:05.836Z,7.90
2018-01-23T10:44:33.476Z,8.00
2018-01-23T10:47:01.064Z,8.00
2018-01-23T10:49:28.628Z,8.10
2018-01-23T10:51:56.186Z,8.10
2018-01-23T10:54:24.941Z,8.10
2018-01-23T10:56:52.503Z,8.20
2018-01-23T10:59:20.124Z,8.30
2018-01-23T11:01:48.528Z,8.30
2018-01-23T11:04:16.160Z,8.30
2018-01-23T11:06:44.489Z,8.50
2018-01-23T11:09:12.032Z,8.40
2018-01-23T11:11:39.617Z,8.40
2018-01-23T11:14:07.228Z,8.50
2018-01-23T11:16:35.541Z,8.50
2018-01-23T11:19:03.093Z,8.50
2018-01-23T11:21:30.649Z,8.50
2018-01-23T11:23:58.379Z,8.50
2018-01-23T11:26:26.695Z,8.70
2018-01-23T11:28:54.368Z,8.70
2018-01-23T11:31:21.951Z,8.80
2018-01-23T11:33:49.571Z,8.90
2018-01-23T11:36:17.164Z,8.80
2018-01-23T11:38:44.748Z,8.90
2018-01-23T11:41:13.076Z,8.80
2018-01-23T11:43:40.618Z,8.80
2018-01-23T11:46:08.160Z,8.80
2018-01-23T11:48:36.484Z,8.90
2018-01-23T11:51:04.080Z,8.90
2018-01-23T11:53:32.434Z,9.20
2018-01-23T11:56:00.000Z,9.20
2018-01-23T11:58:27.584Z,9.20
2018-01-23T12:00:55.922Z,9.30
2018-01-23T12:03:23.891Z,9.20
2018-01-23T12:05:52.224Z,9.40
2018-01-23T12:08:20.517Z,9.40
2018-01-23T12:10:48.308Z,9.40
2018-01-23T12:13:15.844Z,9.40
2018-01-23T12:15:43.429Z,9.40
2018-01-23T12:18:11.001Z,9.30
2018-01-23T12:20:38.675Z,9.30
2018-01-23T12:23:07.328Z,9.30
2018-01-23T12:25:35.160Z,9.30
2018-01-23T12:28:03.637Z,9.40
2018-01-23T12:30:31.211Z,9.40
2018-01-23T12:32:59.252Z,9.40
2018-01-23T12:35:27.662Z,9.50
2018-01-23T12:37:55.271Z,9.50
2018-01-23T12:40:23.715Z,9.40
2018-01-23T12:42:51.481Z,9.40
2018-01-23T12:45:19.117Z,9.40
2018-01-23T12:47:46.702Z,9.20
2018-01-23T12:50:14.336Z,9.20
2018-01-23T12:52:42.705Z,9.20
2018-01-23T12:55:11.074Z,9.20
2018-01-23T12:57:38.644Z,9.20
2018-01-23T13:00:07.879Z,9.10
2018-01-23T13:02:35.447Z,9.10
2018-01-23T13:05:03.158Z,9.10
2018-01-23T13:07:31.538Z,9.10
2018-01-23T13:09:59.125Z,9.20
2018-01-23T13:12:26.741Z,9.20
2018-01-23T13:14:54.361Z,9.30
2018-01-23T13:17:22.038Z,9.30
2018-01-23T13:19:49.635Z,9.30
2018-01-23T13:22:17.285Z,9.30
2018-01-23T13:24:45.021Z,9.40
2018-01-23T13:27:13.167Z,9.50
2018-01-23T13:29:40.744Z,9.40
2018-01-23T13:32:08.475Z,9.30
2018-01-23T13:34:36.825Z,9.40
2018-01-23T13:37:04.384Z,9.40
2018-01-23T13:39:32.016Z,9.40
2018-01-23T13:41:59.572Z,9.30
2018-01-23T13:44:27.107Z,9.40
2018-01-23T13:46:55.389Z,9.40
2018-01-23T13:49:22.993Z,9.30
2018-01-23T13:51:50.608Z,9.40
2018-01-23T13:54:18.230Z,9.40
2018-01-23T13:56:45.849Z,9.50
2018-01-23T13:59:14.300Z,9.40
2018-01-23T14:01:41.864Z,9.30
2018-01-23T14:04:10.145Z,9.20
2018-01-23T14:06:37.716Z,9.20
2018-01-23T14:09:05.250Z,9.30
2018-01-23T14:11:33.599Z,9.30
2018-01-23T14:14:01.245Z,9.30
2018-01-23T14:16:28.798Z,9.30
2018-01-23T14:18:56.335Z,9.30
2018-01-23T14:21:23.878Z,9.30
2018-01-23T14:23:52.332Z,9.30
2018-01-23T14:26:19.881Z,9.30
2018-01-23T14:28:47.636Z,9.30
2018-01-23T14:31:15.231Z,9.20
2018-01-23T14:33:43.561Z,9.20
2018-01-23T14:36:11.527Z,9.20
2018-01-23T14:38:39.090Z,9.20
2018-01-23T14:41:06.698Z,9.10
2018-01-23T14:43:35.116Z,9.10
2018-01-23T14:46:02.738Z,9.10
2018-01-23T14:48:31.950Z,9.20
2018-01-23T14:50:59.534Z,9.20
2018-01-23T14:53:27.101Z,9.10
2018-01-23T14:55:54.663Z,9.20
2018-01-23T14:58:22.212Z,9.30
2018-01-23T15:00:49.874Z,9.20
2018-01-23T15:03:17.498Z,9.20
2018-01-23T15:05:45.062Z,9.20
2018-01-23T15:08:13.434Z,9.10
2018-01-23T15:10:41.777Z,9.30
2018-01-23T15:13:09.359Z,9.30
2018-01-23T15:15:36.911Z,9.40
2018-01-23T15:18:05.576Z,9.40
2018-01-23T15:20:33.221Z,9.40
2018-01-23T15:23:00.890Z,9.40
2018-01-23T15:25:28.474Z,9.20
2018-01-23T15:27:56.019Z,9.30
2018-01-23T15:30:23.541Z,9.30
2018-01-23T15:32:51.152Z,9.40
2018-01-23T15:35:18.832Z,9.20
2018-01-23T15:37:46.489Z,9.30
2018-01-23T15:40:14.139Z,9.30
2018-01-23T15:42:41.761Z,9.20
2018-01-23T15:45:10.152Z,9.20
2018-01-23T15:47:37.780Z,9.20
2018-01-23T15:50:06.254Z,9.20
2018-01-23T15:52:34.569Z,9.20
2018-01-23T15:55:02.197Z,9.10
2018-01-23T15:57:29.749Z,9.00
2018-01-23T15:59:57.451Z,9.10
2018-01-23T16:02:25.054Z,9.00
2018-01-23T16:04:54.255Z,9.00
2018-01-23T16:07:21.838Z,9.00
2018-01-23T16:09:50.329Z,8.90
2018-01-23T16:12:17.996Z,8.90
2018-01-23T16:14:45.607Z,8.80
2018-01-23T16:17:13.207Z,8.90
2018-01-23T16:19:40.820Z,8.90
2018-01-23T16:22:09.125Z,8.90
2018-01-23T16:24:36.687Z,8.90
2018-01-23T16:27:04.257Z,8.80
2018-01-23T16:29:32.619Z,8.60
2018-01-23T16:32:00.227Z,8.60
2018-01-23T16:34:27.782Z,8.60
2018-01-23T16:36:56.190Z,8.50
2018-01-23T16:39:24.513Z,8.30
2018-01-23T16:41:52.256Z,8.30
2018-01-23T16:44:19.801Z,8.20
2018-01-23T16:46:47.400Z,8.20
2018-01-23T16:49:15.008Z,8.20
2018-01-23T16:51:43.374Z,8.10
2018-01-23T16:54:10.967Z,8.10
2018-01-23T16:56:39.487Z,8.10
2018-01-23T16:59:07.082Z,8.10
2018-01-23T17:01:34.634Z,8.20
2018-01-23T17:04:02.216Z,8.20
2018-01-23T17:06:30.557Z,8.20
2018-01-23T17:08:58.241Z,8.20
2018-01-23T17:11:25.805Z,8.30
2018-01-23T17:13:54.195Z,8.40
2018-01-23T17:16:23.510Z,8.30
2018-01-23T17:18:51.050Z,8.30
2018-01-23T17:21:19.372Z,8.50
2018-01-23T17:23:46.925Z,8.40
2018-01-23T17:26:14.588Z,8.50
2018-01-23T17:28:42.164Z,8.60
2018-01-23T17:31:09.706Z,8.50
2018-01-23T17:33:37.311Z,8.50
2018-01-23T17:36:04.908Z,8.50
2018-01-23T17:38:32.900Z,8.60
2018-01-23T17:41:00.494Z,8.50
2018-01-23T17:43:28.955Z,8.60
2018-01-23T17:45:56.542Z,8.60
2018-01-23T17:48:24.824Z,8.60
2018-01-23T17:50:52.388Z,8.60
2018-01-23T17:53:20.069Z,8.60
2018-01-23T17:55:47.688Z,8.60
2018-01-23T17:58:15.254Z,8.60
2018-01-23T18:00:42.878Z,8.60
2018-01-23T18:03:10.400Z,8.60
2018-01-23T18:05:38.002Z,8.70
2018-01-23T18:08:05.627Z,8.70
2018-01-23T18:10:33.252Z,8.70
2018-01-23T18:13:00.905Z,8.70
2018-01-23T18:15:28.489Z,8.70
2018-01-23T18:17:56.131Z,8.80
2018-01-23T18:20:23.729Z,8.80
2018-01-23T18:22:52.178Z,9.00
2018-01-23T18:25:19.716Z,8.90
2018-01-23T18:27:47.325Z,8.90
2018-01-23T18:30:14.875Z,8.90
2018-01-23T18:32:42.495Z,9.00
2018-01-23T18:35:10.066Z,9.00
2018-01-23T18:37:38.575Z,8.90
2018-01-23T18:40:06.178Z,9.00
2018-01-23T18:42:33.805Z,9.00
2018-01-23T18:45:01.479Z,9.00
2018-01-23T18:47:29.771Z,9.00
2018-01-23T18:49:58.095Z,9.10
2018-01-23T18:52:26.492Z,9.00
2018-01-23T18:54:54.138Z,9.10
2018-01-23T18:57:21.871Z,9.10
2018-01-23T18:59:49.534Z,9.10
2018-01-23T19:02:17.156Z,9.10
2018-01-23T19:04:45.544Z,9.10
2018-01-23T19:07:13.102Z,9.10
2018-01-23T19:09:41.468Z,9.20
2018-01-23T19:12:09.126Z,9.20
2018-01-23T19:14:36.830Z,9.10
2018-01-23T19:17:04.408Z,9.20
2018-01-23T19:19:31.964Z,9.10
2018-01-23T19:21:59.620Z,9.20
2018-01-23T19:24:27.151Z,9.20
2018-01-23T19:26:55.491Z,9.20
2018-01-23T19:29:23.068Z,9.20
2018-01-23T19:31:50.624Z,9.20
2018-01-23T19:34:18.230Z,9.00
2018-01-23T19:36:45.820Z,9.00
2018-01-23T19:39:14.516Z,8.70
2018-01-23T19:41:42.381Z,8.60
2018-01-23T19:44:11.562Z,8.40
2018-01-23T19:46:39.241Z,8.40
2018-01-23T19:49:06.859Z,8.40
2018-01-23T19:51:34.467Z,8.40
2018-01-23T19:54:02.143Z,8.40
2018-01-23T19:56:29.792Z,8.40
2018-01-23T19:58:57.586Z,8.30
2018-01-23T20:01:25.182Z,8.40
2018-01-23T20:03:52.821Z,8.40
2018-01-23T20:06:20.369Z,8.40
2018-01-23T20:08:48.014Z,8.40
2018-01-23T20:11:15.685Z,8.40
2018-01-23T20:13:43.581Z,8.40
2018-01-23T20:16:11.200Z,8.40
2018-01-23T20:18:38.745Z,8.40
2018-01-23T20:21:06.451Z,8.30
2018-01-23T20:29:09.644Z,8.30
2018-01-23T20:31:37.742Z,8.30
2018-01-23T20:34:05.342Z,8.30
2018-01-23T20:36:32.996Z,8.30
2018-01-23T20:39:00.639Z,8.30
2018-01-23T20:41:28.302Z,8.30
2018-01-23T20:43:55.944Z,8.30
2018-01-23T20:49:06.637Z,8.30
2018-01-23T20:51:34.406Z,8.40
2018-01-23T20:54:01.993Z,8.30
2018-01-23T20:56:29.676Z,8.30
2018-01-23T20:58:57.205Z,8.30
2018-01-23T21:01:25.428Z,8.30
2018-01-23T21:03:54.733Z,8.30
2018-01-23T21:06:22.915Z,8.30
2018-01-23T21:08:50.648Z,8.40
2018-01-23T21:11:18.261Z,8.30
2018-01-23T21:13:45.826Z,8.30
2018-01-23T21:16:13.459Z,8.30
2018-01-23T21:21:31.672Z,8.40
2018-01-23T21:23:59.977Z,8.40
2018-01-23T21:26:27.548Z,8.30
2018-01-23T21:28:55.159Z,8.40
2018-01-23T21:31:23.878Z,8.40
2018-01-23T21:33:51.507Z,8.40
2018-01-23T21:36:19.179Z,8.40
2018-01-23T21:38:46.952Z,8.50
2018-01-23T21:41:14.913Z,8.50
2018-01-23T21:43:42.648Z,8.50
2018-01-23T21:46:11.453Z,8.50
2018-01-23T21:48:39.390Z,8.50
2018-01-23T21:51:07.213Z,8.60
2018-01-23T21:53:35.821Z,8.70
2018-01-23T21:56:04.132Z,8.70
2018-01-23T21:58:31.682Z,8.70
2018-01-23T22:00:59.246Z,8.70
2018-01-23T22:03:26.803Z,8.70
2018-01-23T22:05:56.685Z,8.70
2018-01-23T22:08:24.291Z,8.80
2018-01-23T22:10:51.931Z,8.70
2018-01-23T22:13:19.728Z,8.60
2018-01-23T22:15:47.827Z,8.60
2018-01-23T22:18:15.361Z,8.60
2018-01-23T22:20:42.978Z,8.60
2018-01-23T22:23:10.577Z,8.60
2018-01-23T22:25:38.156Z,8.60
2018-01-23T22:28:05.794Z,8.60
2018-01-23T22:30:33.768Z,8.60
2018-01-23T22:33:01.449Z,8.50
2018-01-23T22:35:29.013Z,8.50
2018-01-23T22:37:56.541Z,8.50
2018-01-23T22:40:24.120Z,8.50
2018-01-23T22:42:51.711Z,8.60
2018-01-23T22:45:19.382Z,8.60
2018-01-23T22:47:47.802Z,8.60
2018-01-23T22:50:15.363Z,8.60
2018-01-23T22:52:42.984Z,8.60
2018-01-23T22:55:10.578Z,8.60
2018-01-23T22:57:38.159Z,8.60
2018-01-23T23:00:05.804Z,8.70
2018-01-23T23:02:33.497Z,8.70
2018-01-23T23:05:01.072Z,8.70
2018-01-23T23:07:28.636Z,8.70
2018-01-23T23:09:56.235Z,8.70
2018-01-23T23:12:23.909Z,8.70
2018-01-23T23:14:51.551Z,8.70
2018-01-23T23:17:19.086Z,8.70
2018-01-23T23:19:46.705Z,8.70
2018-01-23T23:22:14.252Z,8.70
2018-01-23T23:24:41.866Z,8.70
2018-01-23T23:27:09.443Z,8.70
2018-01-23T23:29:36.997Z,8.70
2018-01-23T23:32:05.318Z,8.70
2018-01-23T23:34:32.890Z,8.70
2018-01-23T23:37:00.476Z,8.70
2018-01-23T23:39:28.073Z,8.70
2018-01-23T23:41:55.675Z,8.70
2018-01-23T23:44:23.282Z,8.80
2018-01-23T23:46:50.923Z,8.80
2018-01-23T23:49:18.541Z,8.80
2018-01-23T23:51:46.106Z,8.70
2018-01-23T23:54:13.687Z,8.80
2018-01-23T23:56:41.258Z,8.80
2018-01-23T23:59:08.910Z,8.80
